sensor_id;sensor_type;location;lat;lon;timestamp;temperature;humidity
47336;DHT22;33068;51.990;5.926;2022-09-27T00:00:11;9.80;99.90
47336;DHT22;33068;51.990;5.926;2022-09-27T00:02:38;9.70;99.90
47336;DHT22;33068;51.990;5.926;2022-09-27T00:05:06;9.70;99.90
47336;DHT22;33068;51.990;5.926;2022-09-27T00:07:33;9.80;99.90
47336;DHT22;33068;51.990;5.926;2022-09-27T00:10:00;9.70;99.90
47336;DHT22;33068;51.990;5.926;2022-09-27T00:12:28;9.80;99.90
47336;DHT22;33068;51.990;5.926;2022-09-27T00:14:56;9.80;99.90
47336;DHT22;33068;51.990;5.926;2022-09-27T00:17:24;9.70;99.90
47336;DHT22;33068;51.990;5.926;2022-09-27T00:19:52;9.70;99.90
47336;DHT22;33068;51.990;5.926;2022-09-27T00:22:20;9.70;99.90
47336;DHT22;33068;51.990;5.926;2022-09-27T00:24:48;9.80;99.90
47336;DHT22;33068;51.990;5.926;2022-09-27T00:27:15;9.70;99.90
47336;DHT22;33068;51.990;5.926;2022-09-27T00:29:42;9.40;99.90
47336;DHT22;33068;51.990;5.926;2022-09-27T00:32:11;9.60;99.90
47336;DHT22;33068;51.990;5.926;2022-09-27T00:34:38;9.60;99.90
47336;DHT22;33068;51.990;5.926;2022-09-27T00:37:06;9.60;99.90
47336;DHT22;33068;51.990;5.926;2022-09-27T00:39:34;9.30;99.90
47336;DHT22;33068;51.990;5.926;2022-09-27T00:42:03;9.60;99.90
47336;DHT22;33068;51.990;5.926;2022-09-27T00:47:49;9.50;99.90
47336;DHT22;33068;51.990;5.926;2022-09-27T00:50:27;9.60;99.90
47336;DHT22;33068;51.990;5.926;2022-09-27T00:53:02;9.50;99.90
47336;DHT22;33068;51.990;5.926;2022-09-27T00:55:35;9.50;99.90
47336;DHT22;33068;51.990;5.926;2022-09-27T00:58:05;9.40;99.90
47336;DHT22;33068;51.990;5.926;2022-09-27T01:00:33;9.50;99.90
47336;DHT22;33068;51.990;5.926;2022-09-27T01:03:05;9.50;99.90
47336;DHT22;33068;51.990;5.926;2022-09-27T01:05:33;9.50;99.90
47336;DHT22;33068;51.990;5.926;2022-09-27T01:08:01;9.50;99.90
47336;DHT22;33068;51.990;5.926;2022-09-27T01:10:33;9.40;99.90
47336;DHT22;33068;51.990;5.926;2022-09-27T01:13:09;9.40;99.90
47336;DHT22;33068;51.990;5.926;2022-09-27T01:15:43;9.40;99.90
47336;DHT22;33068;51.990;5.926;2022-09-27T01:18:23;9.40;99.90
47336;DHT22;33068;51.990;5.926;2022-09-27T01:21:24;9.40;99.90
47336;DHT22;33068;51.990;5.926;2022-09-27T01:27:17;9.40;99.90
47336;DHT22;33068;51.990;5.926;2022-09-27T01:30:11;9.50;99.90
47336;DHT22;33068;51.990;5.926;2022-09-27T01:32:49;9.40;99.90
47336;DHT22;33068;51.990;5.926;2022-09-27T01:35:20;9.50;99.90
47336;DHT22;33068;51.990;5.926;2022-09-27T01:37:55;9.30;99.90
47336;DHT22;33068;51.990;5.926;2022-09-27T01:40:31;9.40;99.90
47336;DHT22;33068;51.990;5.926;2022-09-27T01:43:42;9.30;99.90
47336;DHT22;33068;51.990;5.926;2022-09-27T01:46:16;9.20;99.90
47336;DHT22;33068;51.990;5.926;2022-09-27T01:49:11;9.20;99.90
47336;DHT22;33068;51.990;5.926;2022-09-27T01:51:43;9.20;99.90
47336;DHT22;33068;51.990;5.926;2022-09-27T01:54:16;9.20;99.90
47336;DHT22;33068;51.990;5.926;2022-09-27T01:57:02;9.10;99.90
47336;DHT22;33068;51.990;5.926;2022-09-27T01:59:39;9.00;99.90
47336;DHT22;33068;51.990;5.926;2022-09-27T02:02:40;9.20;99.90
47336;DHT22;33068;51.990;5.926;2022-09-27T02:05:31;8.90;99.90
47336;DHT22;33068;51.990;5.926;2022-09-27T02:08:13;8.90;99.90
47336;DHT22;33068;51.990;5.926;2022-09-27T02:10:45;8.80;99.90
47336;DHT22;33068;51.990;5.926;2022-09-27T02:13:20;8.80;99.90
47336;DHT22;33068;51.990;5.926;2022-09-27T02:15:58;8.70;99.90
47336;DHT22;33068;51.990;5.926;2022-09-27T02:18:49;8.70;99.90
47336;DHT22;33068;51.990;5.926;2022-09-27T02:21:19;8.70;99.90
47336;DHT22;33068;51.990;5.926;2022-09-27T02:23:49;8.70;99.90
47336;DHT22;33068;51.990;5.926;2022-09-27T02:26:24;8.70;99.90
47336;DHT22;33068;51.990;5.926;2022-09-27T02:28:57;8.70;99.90
47336;DHT22;33068;51.990;5.926;2022-09-27T02:31:32;8.70;99.90
47336;DHT22;33068;51.990;5.926;2022-09-27T02:34:04;8.60;99.90
47336;DHT22;33068;51.990;5.926;2022-09-27T02:36:32;8.60;99.90
47336;DHT22;33068;51.990;5.926;2022-09-27T02:39:00;8.50;99.90
47336;DHT22;33068;51.990;5.926;2022-09-27T02:41:30;8.50;99.90
47336;DHT22;33068;51.990;5.926;2022-09-27T02:44:01;8.40;99.90
47336;DHT22;33068;51.990;5.926;2022-09-27T02:46:47;8.40;99.90
47336;DHT22;33068;51.990;5.926;2022-09-27T02:49:30;8.40;99.90
47336;DHT22;33068;51.990;5.926;2022-09-27T02:52:18;8.40;99.90
47336;DHT22;33068;51.990;5.926;2022-09-27T02:54:59;8.40;99.90
47336;DHT22;33068;51.990;5.926;2022-09-27T02:57:56;8.40;99.90
47336;DHT22;33068;51.990;5.926;2022-09-27T03:00:59;8.30;99.90
47336;DHT22;33068;51.990;5.926;2022-09-27T03:03:59;8.30;99.90
47336;DHT22;33068;51.990;5.926;2022-09-27T03:06:31;8.30;99.90
47336;DHT22;33068;51.990;5.926;2022-09-27T03:08:58;8.30;99.90
47336;DHT22;33068;51.990;5.926;2022-09-27T03:11:27;8.30;99.90
47336;DHT22;33068;51.990;5.926;2022-09-27T03:13:54;8.20;99.90
47336;DHT22;33068;51.990;5.926;2022-09-27T03:16:22;8.20;99.90
47336;DHT22;33068;51.990;5.926;2022-09-27T03:19:09;8.30;99.90
47336;DHT22;33068;51.990;5.926;2022-09-27T03:22:01;8.20;99.90
47336;DHT22;33068;51.990;5.926;2022-09-27T03:24:28;8.20;99.90
47336;DHT22;33068;51.990;5.926;2022-09-27T03:26:55;8.20;99.90
47336;DHT22;33068;51.990;5.926;2022-09-27T03:29:22;8.20;99.90
47336;DHT22;33068;51.990;5.926;2022-09-27T03:31:56;8.20;99.90
47336;DHT22;33068;51.990;5.926;2022-09-27T03:34:42;8.20;99.90
47336;DHT22;33068;51.990;5.926;2022-09-27T03:37:11;8.20;99.90
47336;DHT22;33068;51.990;5.926;2022-09-27T03:39:38;8.40;99.90
47336;DHT22;33068;51.990;5.926;2022-09-27T03:42:05;8.10;99.90
47336;DHT22;33068;51.990;5.926;2022-09-27T03:44:34;8.20;99.90
47336;DHT22;33068;51.990;5.926;2022-09-27T03:47:01;8.10;99.90
47336;DHT22;33068;51.990;5.926;2022-09-27T03:49:28;8.10;99.90
47336;DHT22;33068;51.990;5.926;2022-09-27T03:51:57;8.10;99.90
47336;DHT22;33068;51.990;5.926;2022-09-27T03:54:25;8.10;99.90
47336;DHT22;33068;51.990;5.926;2022-09-27T03:56:52;8.10;99.90
47336;DHT22;33068;51.990;5.926;2022-09-27T03:59:19;8.10;99.90
47336;DHT22;33068;51.990;5.926;2022-09-27T04:02:25;8.20;99.90
47336;DHT22;33068;51.990;5.926;2022-09-27T04:05:25;8.20;99.90
47336;DHT22;33068;51.990;5.926;2022-09-27T04:08:02;8.20;99.90
47336;DHT22;33068;51.990;5.926;2022-09-27T04:10:33;8.30;99.90
47336;DHT22;33068;51.990;5.926;2022-09-27T04:13:02;8.20;99.90
47336;DHT22;33068;51.990;5.926;2022-09-27T04:15:34;8.20;99.90
47336;DHT22;33068;51.990;5.926;2022-09-27T04:18:20;8.20;99.90
47336;DHT22;33068;51.990;5.926;2022-09-27T04:20:53;8.30;99.90
47336;DHT22;33068;51.990;5.926;2022-09-27T04:23:21;8.30;99.90
47336;DHT22;33068;51.990;5.926;2022-09-27T04:25:52;8.40;99.90
47336;DHT22;33068;51.990;5.926;2022-09-27T04:28:37;8.40;99.90
47336;DHT22;33068;51.990;5.926;2022-09-27T04:31:05;8.40;99.90
47336;DHT22;33068;51.990;5.926;2022-09-27T04:33:52;8.50;99.90
47336;DHT22;33068;51.990;5.926;2022-09-27T04:36:30;8.40;99.90
47336;DHT22;33068;51.990;5.926;2022-09-27T04:39:03;8.70;99.90
47336;DHT22;33068;51.990;5.926;2022-09-27T04:41:34;8.40;99.90
47336;DHT22;33068;51.990;5.926;2022-09-27T04:44:02;8.30;99.90
47336;DHT22;33068;51.990;5.926;2022-09-27T04:46:45;8.40;99.90
47336;DHT22;33068;51.990;5.926;2022-09-27T04:49:55;8.50;99.90
47336;DHT22;33068;51.990;5.926;2022-09-27T04:52:22;8.50;99.90
47336;DHT22;33068;51.990;5.926;2022-09-27T04:54:49;8.70;99.90
47336;DHT22;33068;51.990;5.926;2022-09-27T04:57:18;8.40;99.90
47336;DHT22;33068;51.990;5.926;2022-09-27T04:59:45;8.30;99.90
47336;DHT22;33068;51.990;5.926;2022-09-27T05:02:13;8.30;99.90
47336;DHT22;33068;51.990;5.926;2022-09-27T05:05:04;8.30;99.90
47336;DHT22;33068;51.990;5.926;2022-09-27T05:07:36;8.30;99.90
47336;DHT22;33068;51.990;5.926;2022-09-27T05:10:09;8.30;99.90
47336;DHT22;33068;51.990;5.926;2022-09-27T05:12:37;8.20;99.90
47336;DHT22;33068;51.990;5.926;2022-09-27T05:15:05;8.20;99.90
47336;DHT22;33068;51.990;5.926;2022-09-27T05:17:33;8.20;99.90
47336;DHT22;33068;51.990;5.926;2022-09-27T05:20:19;8.30;99.90
47336;DHT22;33068;51.990;5.926;2022-09-27T05:22:52;8.10;99.90
47336;DHT22;33068;51.990;5.926;2022-09-27T05:25:21;8.40;99.90
47336;DHT22;33068;51.990;5.926;2022-09-27T05:27:50;8.20;99.90
47336;DHT22;33068;51.990;5.926;2022-09-27T05:30:18;8.20;99.90
47336;DHT22;33068;51.990;5.926;2022-09-27T05:32:57;8.30;99.90
47336;DHT22;33068;51.990;5.926;2022-09-27T05:35:24;8.20;99.90
47336;DHT22;33068;51.990;5.926;2022-09-27T05:37:53;8.20;99.90
47336;DHT22;33068;51.990;5.926;2022-09-27T05:40:21;8.20;99.90
47336;DHT22;33068;51.990;5.926;2022-09-27T05:42:52;8.20;99.90
47336;DHT22;33068;51.990;5.926;2022-09-27T05:45:21;8.10;99.90
47336;DHT22;33068;51.990;5.926;2022-09-27T05:47:52;8.20;99.90
47336;DHT22;33068;51.990;5.926;2022-09-27T05:50:20;8.20;99.90
47336;DHT22;33068;51.990;5.926;2022-09-27T05:52:49;8.10;99.90
47336;DHT22;33068;51.990;5.926;2022-09-27T05:55:18;8.30;99.90
47336;DHT22;33068;51.990;5.926;2022-09-27T05:57:57;8.10;99.90
47336;DHT22;33068;51.990;5.926;2022-09-27T06:00:31;8.10;99.90
47336;DHT22;33068;51.990;5.926;2022-09-27T06:03:01;8.10;99.90
47336;DHT22;33068;51.990;5.926;2022-09-27T06:05:47;8.20;99.90
47336;DHT22;33068;51.990;5.926;2022-09-27T06:08:37;8.20;99.90
47336;DHT22;33068;51.990;5.926;2022-09-27T06:11:07;8.30;99.90
47336;DHT22;33068;51.990;5.926;2022-09-27T06:13:38;8.30;99.90
47336;DHT22;33068;51.990;5.926;2022-09-27T06:16:07;8.30;99.90
47336;DHT22;33068;51.990;5.926;2022-09-27T06:18:36;8.30;99.90
47336;DHT22;33068;51.990;5.926;2022-09-27T06:21:04;8.40;99.90
47336;DHT22;33068;51.990;5.926;2022-09-27T06:23:33;8.40;99.90
47336;DHT22;33068;51.990;5.926;2022-09-27T06:26:15;8.60;99.90
47336;DHT22;33068;51.990;5.926;2022-09-27T06:28:53;8.60;99.90
47336;DHT22;33068;51.990;5.926;2022-09-27T06:31:22;8.60;99.90
47336;DHT22;33068;51.990;5.926;2022-09-27T06:34:01;8.60;99.90
47336;DHT22;33068;51.990;5.926;2022-09-27T06:36:29;8.70;99.90
47336;DHT22;33068;51.990;5.926;2022-09-27T06:38:57;8.80;99.90
47336;DHT22;33068;51.990;5.926;2022-09-27T06:41:53;8.90;99.90
47336;DHT22;33068;51.990;5.926;2022-09-27T06:44:42;8.90;99.90
47336;DHT22;33068;51.990;5.926;2022-09-27T06:47:44;8.90;99.90
47336;DHT22;33068;51.990;5.926;2022-09-27T06:50:23;8.90;99.90
47336;DHT22;33068;51.990;5.926;2022-09-27T06:52:50;8.90;99.90
47336;DHT22;33068;51.990;5.926;2022-09-27T06:55:18;9.30;99.90
47336;DHT22;33068;51.990;5.926;2022-09-27T06:57:45;9.10;99.90
47336;DHT22;33068;51.990;5.926;2022-09-27T07:00:32;9.10;99.90
47336;DHT22;33068;51.990;5.926;2022-09-27T07:03:02;9.10;99.90
47336;DHT22;33068;51.990;5.926;2022-09-27T07:05:55;9.10;99.90
47336;DHT22;33068;51.990;5.926;2022-09-27T07:08:55;9.00;99.90
47336;DHT22;33068;51.990;5.926;2022-09-27T07:11:23;9.50;99.90
47336;DHT22;33068;51.990;5.926;2022-09-27T07:13:51;9.60;99.90
47336;DHT22;33068;51.990;5.926;2022-09-27T07:16:21;9.60;99.90
47336;DHT22;33068;51.990;5.926;2022-09-27T07:18:49;9.60;99.90
47336;DHT22;33068;51.990;5.926;2022-09-27T07:21:16;9.70;99.90
47336;DHT22;33068;51.990;5.926;2022-09-27T07:23:43;9.70;99.90
47336;DHT22;33068;51.990;5.926;2022-09-27T07:26:13;9.60;99.90
47336;DHT22;33068;51.990;5.926;2022-09-27T07:28:40;9.60;99.90
47336;DHT22;33068;51.990;5.926;2022-09-27T07:31:12;9.60;99.90
47336;DHT22;33068;51.990;5.926;2022-09-27T07:33:41;9.60;99.90
47336;DHT22;33068;51.990;5.926;2022-09-27T07:36:08;9.80;99.90
47336;DHT22;33068;51.990;5.926;2022-09-27T07:38:38;9.80;99.90
47336;DHT22;33068;51.990;5.926;2022-09-27T07:41:06;9.90;99.90
47336;DHT22;33068;51.990;5.926;2022-09-27T07:43:34;9.90;99.90
47336;DHT22;33068;51.990;5.926;2022-09-27T07:46:01;9.80;99.90
47336;DHT22;33068;51.990;5.926;2022-09-27T07:48:33;9.90;99.90
47336;DHT22;33068;51.990;5.926;2022-09-27T07:51:10;10.00;99.90
47336;DHT22;33068;51.990;5.926;2022-09-27T07:53:42;10.30;99.90
47336;DHT22;33068;51.990;5.926;2022-09-27T07:56:30;10.10;99.90
47336;DHT22;33068;51.990;5.926;2022-09-27T07:58:58;10.20;99.90
47336;DHT22;33068;51.990;5.926;2022-09-27T08:01:25;10.20;99.90
47336;DHT22;33068;51.990;5.926;2022-09-27T08:03:52;10.20;99.90
47336;DHT22;33068;51.990;5.926;2022-09-27T08:06:21;10.30;99.90
47336;DHT22;33068;51.990;5.926;2022-09-27T08:08:49;10.50;99.90
47336;DHT22;33068;51.990;5.926;2022-09-27T08:11:17;10.40;99.90
47336;DHT22;33068;51.990;5.926;2022-09-27T08:13:47;10.40;99.90
47336;DHT22;33068;51.990;5.926;2022-09-27T08:16:19;10.40;99.90
47336;DHT22;33068;51.990;5.926;2022-09-27T08:19:05;10.40;99.90
47336;DHT22;33068;51.990;5.926;2022-09-27T08:22:09;10.60;99.90
47336;DHT22;33068;51.990;5.926;2022-09-27T08:24:57;10.60;99.90
47336;DHT22;33068;51.990;5.926;2022-09-27T08:27:39;10.70;99.90
47336;DHT22;33068;51.990;5.926;2022-09-27T08:30:30;10.80;99.90
47336;DHT22;33068;51.990;5.926;2022-09-27T08:33:00;10.80;99.90
47336;DHT22;33068;51.990;5.926;2022-09-27T08:35:28;10.90;99.90
47336;DHT22;33068;51.990;5.926;2022-09-27T08:38:01;10.80;99.90
47336;DHT22;33068;51.990;5.926;2022-09-27T08:40:40;10.80;99.90
47336;DHT22;33068;51.990;5.926;2022-09-27T08:43:14;10.70;99.90
47336;DHT22;33068;51.990;5.926;2022-09-27T08:46:05;10.70;99.90
47336;DHT22;33068;51.990;5.926;2022-09-27T08:48:35;10.50;99.90
47336;DHT22;33068;51.990;5.926;2022-09-27T08:51:05;10.60;99.90
47336;DHT22;33068;51.990;5.926;2022-09-27T08:53:37;10.50;99.90
47336;DHT22;33068;51.990;5.926;2022-09-27T08:56:07;10.80;99.90
47336;DHT22;33068;51.990;5.926;2022-09-27T08:58:44;10.50;99.90
47336;DHT22;33068;51.990;5.926;2022-09-27T09:01:19;10.60;99.90
47336;DHT22;33068;51.990;5.926;2022-09-27T09:04:04;10.70;99.90
47336;DHT22;33068;51.990;5.926;2022-09-27T09:06:38;10.90;99.90
47336;DHT22;33068;51.990;5.926;2022-09-27T09:09:17;11.00;99.90
47336;DHT22;33068;51.990;5.926;2022-09-27T09:12:20;11.00;99.90
47336;DHT22;33068;51.990;5.926;2022-09-27T09:15:26;11.10;99.90
47336;DHT22;33068;51.990;5.926;2022-09-27T09:18:16;11.00;99.90
47336;DHT22;33068;51.990;5.926;2022-09-27T09:21:10;11.20;99.90
47336;DHT22;33068;51.990;5.926;2022-09-27T09:23:57;11.30;99.90
47336;DHT22;33068;51.990;5.926;2022-09-27T09:26:33;11.50;99.90
47336;DHT22;33068;51.990;5.926;2022-09-27T09:29:09;11.40;99.90
47336;DHT22;33068;51.990;5.926;2022-09-27T09:31:41;11.20;99.90
47336;DHT22;33068;51.990;5.926;2022-09-27T09:34:16;11.10;99.90
47336;DHT22;33068;51.990;5.926;2022-09-27T09:36:47;11.10;99.90
47336;DHT22;33068;51.990;5.926;2022-09-27T09:39:19;11.10;99.90
47336;DHT22;33068;51.990;5.926;2022-09-27T09:42:00;11.10;99.90
47336;DHT22;33068;51.990;5.926;2022-09-27T09:44:33;11.00;99.90
47336;DHT22;33068;51.990;5.926;2022-09-27T09:47:12;11.00;99.90
47336;DHT22;33068;51.990;5.926;2022-09-27T09:49:44;10.80;99.90
47336;DHT22;33068;51.990;5.926;2022-09-27T09:52:16;10.80;99.90
47336;DHT22;33068;51.990;5.926;2022-09-27T09:54:47;10.80;99.90
47336;DHT22;33068;51.990;5.926;2022-09-27T09:57:22;10.80;99.90
47336;DHT22;33068;51.990;5.926;2022-09-27T09:59:53;10.60;99.90
47336;DHT22;33068;51.990;5.926;2022-09-27T10:02:29;10.50;99.90
47336;DHT22;33068;51.990;5.926;2022-09-27T10:05:03;10.60;99.90
47336;DHT22;33068;51.990;5.926;2022-09-27T10:07:33;10.80;99.90
47336;DHT22;33068;51.990;5.926;2022-09-27T10:10:05;10.80;99.90
47336;DHT22;33068;51.990;5.926;2022-09-27T10:12:47;10.90;99.90
47336;DHT22;33068;51.990;5.926;2022-09-27T10:15:19;10.90;99.90
47336;DHT22;33068;51.990;5.926;2022-09-27T10:17:48;10.90;99.90
47336;DHT22;33068;51.990;5.926;2022-09-27T10:20:27;10.80;99.90
47336;DHT22;33068;51.990;5.926;2022-09-27T10:23:03;10.80;99.90
47336;DHT22;33068;51.990;5.926;2022-09-27T10:26:09;10.80;99.90
47336;DHT22;33068;51.990;5.926;2022-09-27T10:28:49;10.70;99.90
47336;DHT22;33068;51.990;5.926;2022-09-27T10:31:36;10.60;99.90
47336;DHT22;33068;51.990;5.926;2022-09-27T10:34:27;10.80;99.90
47336;DHT22;33068;51.990;5.926;2022-09-27T10:37:05;11.00;99.90
47336;DHT22;33068;51.990;5.926;2022-09-27T10:39:34;11.00;99.90
47336;DHT22;33068;51.990;5.926;2022-09-27T10:42:22;10.90;99.90
47336;DHT22;33068;51.990;5.926;2022-09-27T10:44:58;10.90;99.90
47336;DHT22;33068;51.990;5.926;2022-09-27T10:47:53;11.00;99.90
47336;DHT22;33068;51.990;5.926;2022-09-27T10:50:26;11.30;99.90
47336;DHT22;33068;51.990;5.926;2022-09-27T10:53:01;11.10;99.90
47336;DHT22;33068;51.990;5.926;2022-09-27T10:55:33;11.00;99.90
47336;DHT22;33068;51.990;5.926;2022-09-27T10:58:02;11.20;99.90
47336;DHT22;33068;51.990;5.926;2022-09-27T11:00:32;11.40;99.90
47336;DHT22;33068;51.990;5.926;2022-09-27T11:03:04;11.40;99.90
47336;DHT22;33068;51.990;5.926;2022-09-27T11:05:36;11.30;99.90
47336;DHT22;33068;51.990;5.926;2022-09-27T11:08:22;11.40;99.90
47336;DHT22;33068;51.990;5.926;2022-09-27T11:11:06;11.30;99.90
47336;DHT22;33068;51.990;5.926;2022-09-27T11:13:57;11.50;99.90
47336;DHT22;33068;51.990;5.926;2022-09-27T11:16:40;11.20;99.90
47336;DHT22;33068;51.990;5.926;2022-09-27T11:19:22;11.30;99.90
47336;DHT22;33068;51.990;5.926;2022-09-27T11:21:58;11.40;99.90
47336;DHT22;33068;51.990;5.926;2022-09-27T11:24:47;11.50;99.90
47336;DHT22;33068;51.990;5.926;2022-09-27T11:27:29;11.40;99.90
47336;DHT22;33068;51.990;5.926;2022-09-27T11:30:09;11.40;99.90
47336;DHT22;33068;51.990;5.926;2022-09-27T11:33:04;11.60;99.90
47336;DHT22;33068;51.990;5.926;2022-09-27T11:35:43;11.70;99.90
47336;DHT22;33068;51.990;5.926;2022-09-27T11:38:19;11.80;99.90
47336;DHT22;33068;51.990;5.926;2022-09-27T11:41:05;12.10;99.90
47336;DHT22;33068;51.990;5.926;2022-09-27T11:43:55;12.10;99.90
47336;DHT22;33068;51.990;5.926;2022-09-27T11:46:30;12.40;99.90
47336;DHT22;33068;51.990;5.926;2022-09-27T11:49:15;12.50;99.90
47336;DHT22;33068;51.990;5.926;2022-09-27T11:52:12;12.50;99.90
47336;DHT22;33068;51.990;5.926;2022-09-27T11:54:57;12.70;99.90
47336;DHT22;33068;51.990;5.926;2022-09-27T11:57:31;12.70;99.90
47336;DHT22;33068;51.990;5.926;2022-09-27T12:00:18;12.70;99.90
47336;DHT22;33068;51.990;5.926;2022-09-27T12:03:45;12.70;99.90
47336;DHT22;33068;51.990;5.926;2022-09-27T12:06:26;12.30;99.90
47336;DHT22;33068;51.990;5.926;2022-09-27T12:09:02;12.00;99.90
47336;DHT22;33068;51.990;5.926;2022-09-27T12:11:36;12.00;99.90
47336;DHT22;33068;51.990;5.926;2022-09-27T12:14:08;12.20;99.90
47336;DHT22;33068;51.990;5.926;2022-09-27T12:16:38;12.20;99.90
47336;DHT22;33068;51.990;5.926;2022-09-27T12:19:12;12.10;99.90
47336;DHT22;33068;51.990;5.926;2022-09-27T12:21:53;12.10;99.90
47336;DHT22;33068;51.990;5.926;2022-09-27T12:24:23;12.20;99.90
47336;DHT22;33068;51.990;5.926;2022-09-27T12:27:29;11.80;99.90
47336;DHT22;33068;51.990;5.926;2022-09-27T12:29:58;12.10;99.90
47336;DHT22;33068;51.990;5.926;2022-09-27T12:32:30;12.20;99.90
47336;DHT22;33068;51.990;5.926;2022-09-27T12:35:03;12.10;99.90
47336;DHT22;33068;51.990;5.926;2022-09-27T12:37:41;12.10;99.90
47336;DHT22;33068;51.990;5.926;2022-09-27T12:40:16;12.20;99.90
47336;DHT22;33068;51.990;5.926;2022-09-27T12:42:49;12.20;99.90
47336;DHT22;33068;51.990;5.926;2022-09-27T12:45:45;12.30;99.90
47336;DHT22;33068;51.990;5.926;2022-09-27T12:48:21;12.50;99.90
47336;DHT22;33068;51.990;5.926;2022-09-27T12:50:54;12.40;99.90
47336;DHT22;33068;51.990;5.926;2022-09-27T12:53:28;12.50;99.90
47336;DHT22;33068;51.990;5.926;2022-09-27T12:56:08;12.70;99.90
47336;DHT22;33068;51.990;5.926;2022-09-27T12:59:00;12.50;99.90
47336;DHT22;33068;51.990;5.926;2022-09-27T13:01:51;12.30;99.90
47336;DHT22;33068;51.990;5.926;2022-09-27T13:04:54;12.30;99.90
47336;DHT22;33068;51.990;5.926;2022-09-27T13:07:34;12.20;99.90
47336;DHT22;33068;51.990;5.926;2022-09-27T13:13:16;11.70;99.90
47336;DHT22;33068;51.990;5.926;2022-09-27T13:15:45;11.60;99.90
47336;DHT22;33068;51.990;5.926;2022-09-27T13:24:43;11.20;99.90
47336;DHT22;33068;51.990;5.926;2022-09-27T13:27:38;11.40;99.90
47336;DHT22;33068;51.990;5.926;2022-09-27T13:33:39;11.50;99.90
47336;DHT22;33068;51.990;5.926;2022-09-27T13:36:28;11.40;99.90
47336;DHT22;33068;51.990;5.926;2022-09-27T13:39:17;11.20;99.90
47336;DHT22;33068;51.990;5.926;2022-09-27T13:42:17;11.00;99.90
47336;DHT22;33068;51.990;5.926;2022-09-27T13:45:05;11.00;99.90
47336;DHT22;33068;51.990;5.926;2022-09-27T13:47:44;11.10;99.90
47336;DHT22;33068;51.990;5.926;2022-09-27T13:50:25;11.10;99.90
47336;DHT22;33068;51.990;5.926;2022-09-27T13:53:03;11.20;99.90
47336;DHT22;33068;51.990;5.926;2022-09-27T13:55:44;11.20;99.90
47336;DHT22;33068;51.990;5.926;2022-09-27T13:58:32;11.60;99.90
47336;DHT22;33068;51.990;5.926;2022-09-27T14:01:14;11.40;99.90
47336;DHT22;33068;51.990;5.926;2022-09-27T14:03:44;11.20;99.90
47336;DHT22;33068;51.990;5.926;2022-09-27T14:06:14;11.10;99.90
47336;DHT22;33068;51.990;5.926;2022-09-27T14:08:45;11.10;99.90
47336;DHT22;33068;51.990;5.926;2022-09-27T14:11:18;11.00;99.90
47336;DHT22;33068;51.990;5.926;2022-09-27T14:13:49;11.20;99.90
47336;DHT22;33068;51.990;5.926;2022-09-27T14:16:22;11.10;99.90
47336;DHT22;33068;51.990;5.926;2022-09-27T14:18:52;11.10;99.90
47336;DHT22;33068;51.990;5.926;2022-09-27T14:21:31;11.10;99.90
47336;DHT22;33068;51.990;5.926;2022-09-27T14:24:28;11.10;99.90
47336;DHT22;33068;51.990;5.926;2022-09-27T14:27:11;11.10;99.90
47336;DHT22;33068;51.990;5.926;2022-09-27T14:29:41;11.30;99.90
47336;DHT22;33068;51.990;5.926;2022-09-27T14:32:15;11.10;99.90
47336;DHT22;33068;51.990;5.926;2022-09-27T14:35:11;11.00;99.90
47336;DHT22;33068;51.990;5.926;2022-09-27T14:37:53;11.00;99.90
47336;DHT22;33068;51.990;5.926;2022-09-27T14:40:21;11.10;99.90
47336;DHT22;33068;51.990;5.926;2022-09-27T14:42:52;11.10;99.90
47336;DHT22;33068;51.990;5.926;2022-09-27T14:45:21;11.20;99.90
47336;DHT22;33068;51.990;5.926;2022-09-27T14:47:51;11.60;99.90
47336;DHT22;33068;51.990;5.926;2022-09-27T14:50:21;11.40;99.90
47336;DHT22;33068;51.990;5.926;2022-09-27T14:52:49;11.50;99.90
47336;DHT22;33068;51.990;5.926;2022-09-27T14:55:21;11.50;99.90
47336;DHT22;33068;51.990;5.926;2022-09-27T14:57:50;11.40;99.90
47336;DHT22;33068;51.990;5.926;2022-09-27T15:00:20;11.40;99.90
47336;DHT22;33068;51.990;5.926;2022-09-27T15:02:49;11.30;99.90
47336;DHT22;33068;51.990;5.926;2022-09-27T15:05:23;11.30;99.90
47336;DHT22;33068;51.990;5.926;2022-09-27T15:07:51;11.40;99.90
47336;DHT22;33068;51.990;5.926;2022-09-27T15:10:22;11.00;99.90
47336;DHT22;33068;51.990;5.926;2022-09-27T15:12:54;11.30;99.90
47336;DHT22;33068;51.990;5.926;2022-09-27T15:15:26;11.30;99.90
47336;DHT22;33068;51.990;5.926;2022-09-27T15:17:55;11.20;99.90
47336;DHT22;33068;51.990;5.926;2022-09-27T15:20:26;11.30;99.90
47336;DHT22;33068;51.990;5.926;2022-09-27T15:22:56;11.10;99.90
47336;DHT22;33068;51.990;5.926;2022-09-27T15:25:27;10.90;99.90
47336;DHT22;33068;51.990;5.926;2022-09-27T15:28:01;10.90;99.90
47336;DHT22;33068;51.990;5.926;2022-09-27T15:30:34;11.00;99.90
47336;DHT22;33068;51.990;5.926;2022-09-27T15:33:02;10.90;99.90
47336;DHT22;33068;51.990;5.926;2022-09-27T15:35:33;10.80;99.90
47336;DHT22;33068;51.990;5.926;2022-09-27T15:38:12;10.80;99.90
47336;DHT22;33068;51.990;5.926;2022-09-27T15:40:59;10.90;99.90
47336;DHT22;33068;51.990;5.926;2022-09-27T15:43:28;10.90;99.90
47336;DHT22;33068;51.990;5.926;2022-09-27T15:45:57;10.80;99.90
47336;DHT22;33068;51.990;5.926;2022-09-27T15:48:28;10.80;99.90
47336;DHT22;33068;51.990;5.926;2022-09-27T15:50:58;10.80;99.90
47336;DHT22;33068;51.990;5.926;2022-09-27T15:53:42;10.60;99.90
47336;DHT22;33068;51.990;5.926;2022-09-27T15:56:13;10.70;99.90
47336;DHT22;33068;51.990;5.926;2022-09-27T15:58:42;10.50;99.90
47336;DHT22;33068;51.990;5.926;2022-09-27T16:01:17;10.50;99.90
47336;DHT22;33068;51.990;5.926;2022-09-27T16:03:47;10.50;99.90
47336;DHT22;33068;51.990;5.926;2022-09-27T16:06:16;10.50;99.90
47336;DHT22;33068;51.990;5.926;2022-09-27T16:08:44;10.50;99.90
47336;DHT22;33068;51.990;5.926;2022-09-27T16:11:14;10.30;99.90
47336;DHT22;33068;51.990;5.926;2022-09-27T16:13:46;10.30;99.90
47336;DHT22;33068;51.990;5.926;2022-09-27T16:16:16;10.30;99.90
47336;DHT22;33068;51.990;5.926;2022-09-27T16:18:45;10.30;99.90
47336;DHT22;33068;51.990;5.926;2022-09-27T16:21:12;10.30;99.90
47336;DHT22;33068;51.990;5.926;2022-09-27T16:23:44;10.30;99.90
47336;DHT22;33068;51.990;5.926;2022-09-27T16:26:11;10.30;99.90
47336;DHT22;33068;51.990;5.926;2022-09-27T16:28:38;10.20;99.90
47336;DHT22;33068;51.990;5.926;2022-09-27T16:31:06;10.20;99.90
47336;DHT22;33068;51.990;5.926;2022-09-27T16:33:36;9.90;99.90
47336;DHT22;33068;51.990;5.926;2022-09-27T16:36:05;10.20;99.90
47336;DHT22;33068;51.990;5.926;2022-09-27T16:38:39;10.20;99.90
47336;DHT22;33068;51.990;5.926;2022-09-27T16:41:07;10.20;99.90
47336;DHT22;33068;51.990;5.926;2022-09-27T16:43:34;10.10;99.90
47336;DHT22;33068;51.990;5.926;2022-09-27T16:46:05;10.10;99.90
47336;DHT22;33068;51.990;5.926;2022-09-27T16:48:36;10.10;99.90
47336;DHT22;33068;51.990;5.926;2022-09-27T16:51:05;10.10;99.90